sensor_id;sensor_type;location;lat;lon;timestamp;pressure;altitude;pressure_sealevel;temperature;humidity
46942;BME280;32676;52.630;4.896;2023-05-08T00:02:06;100961.44;;;14.30;83.78
46942;BME280;32676;52.630;4.896;2023-05-08T00:04:32;100954.44;;;14.29;84.04
46942;BME280;32676;52.630;4.896;2023-05-08T00:07:00;100951.94;;;14.26;83.84
46942;BME280;32676;52.630;4.896;2023-05-08T00:09:26;100949.28;;;14.26;84.10
46942;BME280;32676;52.630;4.896;2023-05-08T00:11:52;100947.59;;;14.25;84.01
46942;BME280;32676;52.630;4.896;2023-05-08T00:14:19;100945.84;;;14.24;84.26
46942;BME280;32676;52.630;4.896;2023-05-08T00:16:45;100944.16;;;14.23;84.19
46942;BME280;32676;52.630;4.896;2023-05-08T00:19:11;100935.41;;;14.20;83.99
46942;BME280;32676;52.630;4.896;2023-05-08T00:21:38;100923.22;;;14.18;84.43
46942;BME280;32676;52.630;4.896;2023-05-08T00:24:05;100914.44;;;14.17;84.18
46942;BME280;32676;52.630;4.896;2023-05-08T00:26:32;100910.06;;;14.16;84.41
46942;BME280;32676;52.630;4.896;2023-05-08T00:28:58;100918.94;;;14.15;84.91
46942;BME280;32676;52.630;4.896;2023-05-08T00:31:24;100915.34;;;14.16;84.93
46942;BME280;32676;52.630;4.896;2023-05-08T00:33:51;100918.13;;;14.13;85.00
46942;BME280;32676;52.630;4.896;2023-05-08T00:36:17;100900.56;;;14.12;85.44
46942;BME280;32676;52.630;4.896;2023-05-08T00:38:43;100907.56;;;14.13;85.66
46942;BME280;32676;52.630;4.896;2023-05-08T00:41:11;100909.41;;;14.11;85.70
46942;BME280;32676;52.630;4.896;2023-05-08T00:43:37;100905.06;;;14.10;85.83
46942;BME280;32676;52.630;4.896;2023-05-08T00:46:04;100898.06;;;14.09;85.53
46942;BME280;32676;52.630;4.896;2023-05-08T00:48:31;100897.28;;;14.07;85.70
46942;BME280;32676;52.630;4.896;2023-05-08T00:50:58;100895.56;;;14.06;85.92
46942;BME280;32676;52.630;4.896;2023-05-08T00:53:25;100896.44;;;14.07;85.83
46942;BME280;32676;52.630;4.896;2023-05-08T00:55:52;100888.56;;;14.05;85.95
46942;BME280;32676;52.630;4.896;2023-05-08T00:58:20;100884.19;;;14.04;86.02
46942;BME280;32676;52.630;4.896;2023-05-08T01:00:48;100888.56;;;14.05;86.13
46942;BME280;32676;52.630;4.896;2023-05-08T01:03:15;100898.22;;;14.06;86.58
46942;BME280;32676;52.630;4.896;2023-05-08T01:05:42;100899.13;;;14.05;86.28
46942;BME280;32676;52.630;4.896;2023-05-08T01:08:08;100881.66;;;14.02;86.32
46942;BME280;32676;52.630;4.896;2023-05-08T01:10:37;100880.00;;;14.00;86.60
46942;BME280;32676;52.630;4.896;2023-05-08T01:13:08;100858.97;;;13.97;86.23
46942;BME280;32676;52.630;4.896;2023-05-08T01:15:40;100853.06;;;13.92;86.22
46942;BME280;32676;52.630;4.896;2023-05-08T01:18:10;100833.78;;;13.90;86.13
46942;BME280;32676;52.630;4.896;2023-05-08T01:20:41;100832.06;;;13.89;86.32
46942;BME280;32676;52.630;4.896;2023-05-08T01:23:26;100825.06;;;13.88;86.51
46942;BME280;32676;52.630;4.896;2023-05-08T01:26:04;100804.22;;;13.81;86.30
46942;BME280;32676;52.630;4.896;2023-05-08T01:28:39;100789.47;;;13.77;86.08
46942;BME280;32676;52.630;4.896;2023-05-08T01:31:14;100782.44;;;13.76;86.41
46942;BME280;32676;52.630;4.896;2023-05-08T01:33:45;100770.31;;;13.72;86.49
46942;BME280;32676;52.630;4.896;2023-05-08T01:36:17;100766.03;;;13.70;86.46
46942;BME280;32676;52.630;4.896;2023-05-08T01:38:47;100758.19;;;13.68;86.54
46942;BME280;32676;52.630;4.896;2023-05-08T01:41:15;100740.75;;;13.64;86.37
46942;BME280;32676;52.630;4.896;2023-05-08T01:43:44;100723.34;;;13.60;85.88
46942;BME280;32676;52.630;4.896;2023-05-08T01:46:13;100697.25;;;13.54;85.43
46942;BME280;32676;52.630;4.896;2023-05-08T01:48:43;100681.69;;;13.48;85.74
46942;BME280;32676;52.630;4.896;2023-05-08T01:51:13;100660.75;;;13.44;85.62
46942;BME280;32676;52.630;4.896;2023-05-08T01:53:42;100656.38;;;13.43;85.22
46942;BME280;32676;52.630;4.896;2023-05-08T01:56:13;100641.69;;;13.38;85.54
46942;BME280;32676;52.630;4.896;2023-05-08T01:58:41;100620.78;;;13.33;85.27
46942;BME280;32676;52.630;4.896;2023-05-08T02:01:08;100587.66;;;13.26;84.68
46942;BME280;32676;52.630;4.896;2023-05-08T02:03:35;100565.16;;;13.19;84.52
46942;BME280;32676;52.630;4.896;2023-05-08T02:06:02;100541.69;;;13.13;84.26
46942;BME280;32676;52.630;4.896;2023-05-08T02:08:31;100528.63;;;13.10;84.39
46942;BME280;32676;52.630;4.896;2023-05-08T02:10:58;100519.94;;;13.07;85.03
46942;BME280;32676;52.630;4.896;2023-05-08T02:13:25;100512.97;;;13.06;85.16
46942;BME280;32676;52.630;4.896;2023-05-08T02:15:53;100505.19;;;13.03;85.00
46942;BME280;32676;52.630;4.896;2023-05-08T02:18:22;100499.13;;;13.01;84.80
46942;BME280;32676;52.630;4.896;2023-05-08T02:20:49;100494.00;;;12.98;85.36
46942;BME280;32676;52.630;4.896;2023-05-08T02:23:16;100501.78;;;13.01;85.45
46942;BME280;32676;52.630;4.896;2023-05-08T02:25:44;100506.13;;;13.02;85.82
46942;BME280;32676;52.630;4.896;2023-05-08T02:28:11;100513.09;;;13.03;86.30
46942;BME280;32676;52.630;4.896;2023-05-08T02:30:39;100510.47;;;13.03;86.20
46942;BME280;32676;52.630;4.896;2023-05-08T02:33:06;100511.41;;;13.02;86.58
46942;BME280;32676;52.630;4.896;2023-05-08T02:35:33;100516.69;;;13.02;86.43
46942;BME280;32676;52.630;4.896;2023-05-08T02:38:00;100519.31;;;13.02;86.80
46942;BME280;32676;52.630;4.896;2023-05-08T02:40:27;100514.97;;;13.01;86.52
46942;BME280;32676;52.630;4.896;2023-05-08T02:42:55;100516.69;;;13.02;86.52
46942;BME280;32676;52.630;4.896;2023-05-08T02:45:22;100511.41;;;13.02;86.51
46942;BME280;32676;52.630;4.896;2023-05-08T02:47:50;100519.31;;;13.02;86.94
46942;BME280;32676;52.630;4.896;2023-05-08T02:50:19;100521.00;;;13.03;86.83
46942;BME280;32676;52.630;4.896;2023-05-08T02:52:47;100521.97;;;13.02;86.92
46942;BME280;32676;52.630;4.896;2023-05-08T02:55:17;100520.25;;;13.01;86.87
46942;BME280;32676;52.630;4.896;2023-05-08T02:57:46;100528.94;;;13.03;86.87
46942;BME280;32676;52.630;4.896;2023-05-08T03:00:15;100536.84;;;13.03;86.98
46942;BME280;32676;52.630;4.896;2023-05-08T03:02:47;100548.16;;;13.05;87.06
46942;BME280;32676;52.630;4.896;2023-05-08T03:05:15;100549.91;;;13.06;86.83
46942;BME280;32676;52.630;4.896;2023-05-08T03:07:42;100561.22;;;13.09;87.11
46942;BME280;32676;52.630;4.896;2023-05-08T03:10:11;100572.56;;;13.11;87.08
46942;BME280;32676;52.630;4.896;2023-05-08T03:12:40;100575.97;;;13.13;87.31
46942;BME280;32676;52.630;4.896;2023-05-08T03:15:09;100578.69;;;13.11;87.08
46942;BME280;32676;52.630;4.896;2023-05-08T03:17:38;100570.06;;;13.07;86.58
46942;BME280;32676;52.630;4.896;2023-05-08T03:20:07;100545.69;;;13.02;86.88
46942;BME280;32676;52.630;4.896;2023-05-08T03:22:35;100542.19;;;13.02;86.55
46942;BME280;32676;52.630;4.896;2023-05-08T03:25:03;100544.88;;;13.00;86.45
46942;BME280;32676;52.630;4.896;2023-05-08T03:27:30;100536.97;;;13.00;86.28
46942;BME280;32676;52.630;4.896;2023-05-08T03:29:57;100546.63;;;13.01;86.67
46942;BME280;32676;52.630;4.896;2023-05-08T03:32:24;100551.03;;;13.01;86.60
46942;BME280;32676;52.630;4.896;2023-05-08T03:34:52;100555.31;;;13.03;86.89
46942;BME280;32676;52.630;4.896;2023-05-08T03:37:19;100563.22;;;13.03;86.68
46942;BME280;32676;52.630;4.896;2023-05-08T03:39:45;100562.31;;;13.04;86.66
46942;BME280;32676;52.630;4.896;2023-05-08T03:42:12;100560.59;;;13.03;86.87
46942;BME280;32676;52.630;4.896;2023-05-08T03:44:45;100564.16;;;13.02;86.35
46942;BME280;32676;52.630;4.896;2023-05-08T03:47:12;100557.16;;;13.01;86.18
46942;BME280;32676;52.630;4.896;2023-05-08T03:49:38;100564.16;;;13.02;86.09
46942;BME280;32676;52.630;4.896;2023-05-08T03:52:06;100567.72;;;13.01;86.58
46942;BME280;32676;52.630;4.896;2023-05-08T03:54:32;100570.28;;;13.03;86.50
46942;BME280;32676;52.630;4.896;2023-05-08T03:56:59;100585.09;;;13.05;86.74
46942;BME280;32676;52.630;4.896;2023-05-08T03:59:27;100579.75;;;13.07;86.83
46942;BME280;32676;52.630;4.896;2023-05-08T04:01:58;100592.88;;;13.09;86.94
46942;BME280;32676;52.630;4.896;2023-05-08T04:04:27;100603.38;;;13.10;87.36
46942;BME280;32676;52.630;4.896;2023-05-08T04:06:58;100607.63;;;13.13;87.49
46942;BME280;32676;52.630;4.896;2023-05-08T04:09:33;100647.84;;;13.18;87.65
46942;BME280;32676;52.630;4.896;2023-05-08T04:12:01;100659.97;;;13.22;87.95
46942;BME280;32676;52.630;4.896;2023-05-08T04:14:29;100673.94;;;13.24;87.66
46942;BME280;32676;52.630;4.896;2023-05-08T04:17:00;100698.34;;;13.29;88.01
46942;BME280;32676;52.630;4.896;2023-05-08T04:19:28;100708.81;;;13.32;87.82
46942;BME280;32676;52.630;4.896;2023-05-08T04:21:58;100720.16;;;13.34;87.80
46942;BME280;32676;52.630;4.896;2023-05-08T04:24:31;100728.06;;;13.34;87.90
46942;BME280;32676;52.630;4.896;2023-05-08T04:26:58;100720.16;;;13.34;87.87
46942;BME280;32676;52.630;4.896;2023-05-08T04:29:25;100721.06;;;13.33;88.10
46942;BME280;32676;52.630;4.896;2023-05-08T04:31:52;100723.63;;;13.35;88.21
46942;BME280;32676;52.630;4.896;2023-05-08T04:34:18;100742.03;;;13.36;88.30
46942;BME280;32676;52.630;4.896;2023-05-08T04:36:44;100744.56;;;13.39;88.36
46942;BME280;32676;52.630;4.896;2023-05-08T04:39:12;100762.91;;;13.42;87.96
46942;BME280;32676;52.630;4.896;2023-05-08T04:41:40;100761.16;;;13.41;88.14
46942;BME280;32676;52.630;4.896;2023-05-08T04:44:06;100764.66;;;13.42;87.81
46942;BME280;32676;52.630;4.896;2023-05-08T04:46:32;100757.75;;;13.39;87.31
46942;BME280;32676;52.630;4.896;2023-05-08T04:48:59;100756.03;;;13.38;87.45
46942;BME280;32676;52.630;4.896;2023-05-08T04:51:25;100756.91;;;13.39;87.60
46942;BME280;32676;52.630;4.896;2023-05-08T04:53:51;100753.38;;;13.38;87.38
46942;BME280;32676;52.630;4.896;2023-05-08T04:56:17;100774.31;;;13.43;87.53
46942;BME280;32676;52.630;4.896;2023-05-08T04:58:46;100780.44;;;13.43;87.57
46942;BME280;32676;52.630;4.896;2023-05-08T05:01:12;100787.44;;;13.44;87.43
46942;BME280;32676;52.630;4.896;2023-05-08T05:03:38;100796.16;;;13.47;87.41
46942;BME280;32676;52.630;4.896;2023-05-08T05:06:05;100800.47;;;13.48;87.38
46942;BME280;32676;52.630;4.896;2023-05-08T05:08:31;100830.19;;;13.53;87.06
46942;BME280;32676;52.630;4.896;2023-05-08T05:10:57;100860.66;;;13.60;87.21
46942;BME280;32676;52.630;4.896;2023-05-08T05:13:24;100877.22;;;13.63;87.34
46942;BME280;32676;52.630;4.896;2023-05-08T05:15:51;100902.50;;;13.69;87.43
46942;BME280;32676;52.630;4.896;2023-05-08T05:18:18;100921.78;;;13.71;87.66
46942;BME280;32676;52.630;4.896;2023-05-08T05:20:44;100940.13;;;13.74;87.34
46942;BME280;32676;52.630;4.896;2023-05-08T05:23:11;100947.94;;;13.77;87.13
46942;BME280;32676;52.630;4.896;2023-05-08T05:25:38;100963.63;;;13.80;87.25
46942;BME280;32676;52.630;4.896;2023-05-08T05:28:04;100984.50;;;13.87;87.12
46942;BME280;32676;52.630;4.896;2023-05-08T05:30:31;100995.84;;;13.89;87.14
46942;BME280;32676;52.630;4.896;2023-05-08T05:32:58;101007.22;;;13.91;86.76
46942;BME280;32676;52.630;4.896;2023-05-08T05:35:25;101008.06;;;13.91;86.46
46942;BME280;32676;52.630;4.896;2023-05-08T05:37:51;101021.22;;;13.93;86.39
46942;BME280;32676;52.630;4.896;2023-05-08T05:40:17;101027.28;;;13.95;86.48
46942;BME280;32676;52.630;4.896;2023-05-08T05:42:47;101047.38;;;13.99;86.57
46942;BME280;32676;52.630;4.896;2023-05-08T05:45:14;101078.81;;;14.05;86.87
46942;BME280;32676;52.630;4.896;2023-05-08T05:47:43;101096.25;;;14.09;86.74
46942;BME280;32676;52.630;4.896;2023-05-08T05:50:10;101117.28;;;14.12;86.83
46942;BME280;32676;52.630;4.896;2023-05-08T05:52:37;101138.13;;;14.18;86.75
46942;BME280;32676;52.630;4.896;2023-05-08T05:55:03;101161.69;;;14.25;86.83
46942;BME280;32676;52.630;4.896;2023-05-08T05:57:30;101201.91;;;14.31;87.29
46942;BME280;32676;52.630;4.896;2023-05-08T05:59:56;101231.56;;;14.39;87.32
46942;BME280;32676;52.630;4.896;2023-05-08T06:02:23;101271.75;;;14.48;87.30
46942;BME280;32676;52.630;4.896;2023-05-08T06:04:50;101319.88;;;14.57;87.90
46942;BME280;32676;52.630;4.896;2023-05-08T06:07:17;101359.16;;;14.67;87.91
46942;BME280;32676;52.630;4.896;2023-05-08T06:09:45;101393.25;;;14.74;88.00
46942;BME280;32676;52.630;4.896;2023-05-08T06:12:12;101431.69;;;14.83;88.39
46942;BME280;32676;52.630;4.896;2023-05-08T06:14:38;101456.19;;;14.88;88.14
46942;BME280;32676;52.630;4.896;2023-05-08T06:17:05;101495.56;;;14.96;88.15
46942;BME280;32676;52.630;4.896;2023-05-08T06:19:31;101515.63;;;15.02;87.96
46942;BME280;32676;52.630;4.896;2023-05-08T06:21:57;101533.13;;;15.06;87.85
46942;BME280;32676;52.630;4.896;2023-05-08T06:24:25;101559.34;;;15.12;87.35
46942;BME280;32676;52.630;4.896;2023-05-08T06:26:51;101589.13;;;15.17;87.43
46942;BME280;32676;52.630;4.896;2023-05-08T06:29:18;101607.50;;;15.22;87.39
46942;BME280;32676;52.630;4.896;2023-05-08T06:31:44;101638.16;;;15.27;87.52
46942;BME280;32676;52.630;4.896;2023-05-08T06:34:11;101647.78;;;15.30;87.10
46942;BME280;32676;52.630;4.896;2023-05-08T06:36:37;101671.38;;;15.36;87.07
46942;BME280;32676;52.630;4.896;2023-05-08T06:39:03;101683.69;;;15.37;86.45
46942;BME280;32676;52.630;4.896;2023-05-08T06:41:31;101696.81;;;15.40;86.25
46942;BME280;32676;52.630;4.896;2023-05-08T06:43:57;101709.00;;;15.44;86.22
46942;BME280;32676;52.630;4.896;2023-05-08T06:46:24;101751.97;;;15.52;86.16
46942;BME280;32676;52.630;4.896;2023-05-08T06:48:50;101737.97;;;15.49;86.35
46942;BME280;32676;52.630;4.896;2023-05-08T06:51:16;101753.78;;;15.52;85.94
46942;BME280;32676;52.630;4.896;2023-05-08T06:53:43;101755.47;;;15.53;86.53
46942;BME280;32676;52.630;4.896;2023-05-08T06:56:09;101764.22;;;15.55;86.36
46942;BME280;32676;52.630;4.896;2023-05-08T06:58:37;101779.22;;;15.56;86.18
46942;BME280;32676;52.630;4.896;2023-05-08T07:01:03;101780.88;;;15.59;86.13
46942;BME280;32676;52.630;4.896;2023-05-08T07:03:29;101812.44;;;15.65;85.89
46942;BME280;32676;52.630;4.896;2023-05-08T07:05:56;101817.69;;;15.66;85.43
46942;BME280;32676;52.630;4.896;2023-05-08T07:08:22;101856.28;;;15.73;85.49
46942;BME280;32676;52.630;4.896;2023-05-08T07:10:48;101875.53;;;15.79;85.20
46942;BME280;32676;52.630;4.896;2023-05-08T07:13:15;101886.94;;;15.81;85.26
46942;BME280;32676;52.630;4.896;2023-05-08T07:15:45;101885.25;;;15.80;85.07
46942;BME280;32676;52.630;4.896;2023-05-08T07:18:11;101896.59;;;15.83;85.40
46942;BME280;32676;52.630;4.896;2023-05-08T07:20:38;101879.94;;;15.80;85.27
46942;BME280;32676;52.630;4.896;2023-05-08T07:23:04;101886.09;;;15.80;84.94
46942;BME280;32676;52.630;4.896;2023-05-08T07:25:31;101891.34;;;15.82;85.31
46942;BME280;32676;52.630;4.896;2023-05-08T07:27:57;101897.44;;;15.84;85.10
46942;BME280;32676;52.630;4.896;2023-05-08T07:30:23;101894.84;;;15.82;85.20
46942;BME280;32676;52.630;4.896;2023-05-08T07:32:51;101918.53;;;15.87;85.11
46942;BME280;32676;52.630;4.896;2023-05-08T07:35:18;101931.69;;;15.90;85.35
46942;BME280;32676;52.630;4.896;2023-05-08T07:37:44;101940.44;;;15.92;85.26
46942;BME280;32676;52.630;4.896;2023-05-08T07:40:10;101958.88;;;15.95;85.02
46942;BME280;32676;52.630;4.896;2023-05-08T07:42:37;101967.66;;;15.97;85.00
46942;BME280;32676;52.630;4.896;2023-05-08T07:45:04;101969.38;;;15.98;85.03
46942;BME280;32676;52.630;4.896;2023-05-08T07:47:30;101990.44;;;16.03;85.04
46942;BME280;32676;52.630;4.896;2023-05-08T07:49:58;102009.75;;;16.06;84.53
46942;BME280;32676;52.630;4.896;2023-05-08T07:52:24;102028.97;;;16.11;84.43
46942;BME280;32676;52.630;4.896;2023-05-08T07:54:50;102046.53;;;16.16;84.31
46942;BME280;32676;52.630;4.896;2023-05-08T07:57:17;102060.59;;;16.18;83.84
46942;BME280;32676;52.630;4.896;2023-05-08T07:59:43;102058.75;;;16.20;83.77
46942;BME280;32676;52.630;4.896;2023-05-08T08:02:10;102093.94;;;16.25;84.15
46942;BME280;32676;52.630;4.896;2023-05-08T08:04:36;102111.47;;;16.29;84.02
46942;BME280;32676;52.630;4.896;2023-05-08T08:07:03;102123.69;;;16.33;84.00
46942;BME280;32676;52.630;4.896;2023-05-08T08:09:30;102157.97;;;16.39;83.59
46942;BME280;32676;52.630;4.896;2023-05-08T08:11:56;102166.75;;;16.41;83.54
46942;BME280;32676;52.630;4.896;2023-05-08T08:14:22;102176.41;;;16.42;82.97
46942;BME280;32676;52.630;4.896;2023-05-08T08:16:49;102174.56;;;16.44;82.87
46942;BME280;32676;52.630;4.896;2023-05-08T08:19:15;102183.38;;;16.46;82.80
46942;BME280;32676;52.630;4.896;2023-05-08T08:21:41;102209.69;;;16.53;82.45
46942;BME280;32676;52.630;4.896;2023-05-08T08:24:09;102220.28;;;16.53;82.17
46942;BME280;32676;52.630;4.896;2023-05-08T08:26:36;102225.50;;;16.56;82.43
46942;BME280;32676;52.630;4.896;2023-05-08T08:29:02;102243.94;;;16.59;82.53
46942;BME280;32676;52.630;4.896;2023-05-08T08:31:28;102265.91;;;16.64;82.61
46942;BME280;32676;52.630;4.896;2023-05-08T08:33:55;102287.03;;;16.67;82.47
46942;BME280;32676;52.630;4.896;2023-05-08T08:36:21;102301.88;;;16.73;82.04
46942;BME280;32676;52.630;4.896;2023-05-08T08:38:47;102325.63;;;16.77;81.86
46942;BME280;32676;52.630;4.896;2023-05-08T08:41:15;102337.06;;;16.79;81.86
46942;BME280;32676;52.630;4.896;2023-05-08T08:43:42;102358.16;;;16.84;81.26
46942;BME280;32676;52.630;4.896;2023-05-08T08:46:10;102355.50;;;16.84;81.13
46942;BME280;32676;52.630;4.896;2023-05-08T08:48:37;102388.91;;;16.91;81.39
46942;BME280;32676;52.630;4.896;2023-05-08T08:51:09;102436.34;;;17.02;81.52
46942;BME280;32676;52.630;4.896;2023-05-08T08:53:38;102473.22;;;17.11;81.46
46942;BME280;32676;52.630;4.896;2023-05-08T08:56:07;102539.19;;;17.25;81.38
46942;BME280;32676;52.630;4.896;2023-05-08T08:58:37;102599.81;;;17.39;80.81
46942;BME280;32676;52.630;4.896;2023-05-08T09:01:03;102635.00;;;17.47;80.45
46942;BME280;32676;52.630;4.896;2023-05-08T09:03:30;102661.38;;;17.53;79.68
46942;BME280;32676;52.630;4.896;2023-05-08T09:05:58;102712.44;;;17.64;79.78
46942;BME280;32676;52.630;4.896;2023-05-08T09:08:24;102730.88;;;17.69;79.75
46942;BME280;32676;52.630;4.896;2023-05-08T09:10:51;102770.53;;;17.77;79.27
46942;BME280;32676;52.630;4.896;2023-05-08T09:13:19;102782.81;;;17.81;78.97
46942;BME280;32676;52.630;4.896;2023-05-08T09:15:47;102816.28;;;17.88;78.58
46942;BME280;32676;52.630;4.896;2023-05-08T09:18:14;102834.81;;;17.91;78.08
46942;BME280;32676;52.630;4.896;2023-05-08T09:20:40;102845.38;;;17.94;77.80
46942;BME280;32676;52.630;4.896;2023-05-08T09:23:07;102864.72;;;17.99;77.50
46942;BME280;32676;52.630;4.896;2023-05-08T09:25:40;102919.34;;;18.11;77.54
46942;BME280;32676;52.630;4.896;2023-05-08T09:28:13;102968.72;;;18.21;77.43
46942;BME280;32676;52.630;4.896;2023-05-08T09:30:48;103019.78;;;18.34;76.94
46942;BME280;32676;52.630;4.896;2023-05-08T09:33:15;103050.63;;;18.41;76.80
46942;BME280;32676;52.630;4.896;2023-05-08T09:35:41;103053.25;;;18.43;76.59
46942;BME280;32676;52.630;4.896;2023-05-08T09:38:08;103070.00;;;18.47;76.16
46942;BME280;32676;52.630;4.896;2023-05-08T09:40:35;103121.16;;;18.58;76.26
46942;BME280;32676;52.630;4.896;2023-05-08T09:43:11;103156.41;;;18.66;76.26
46942;BME280;32676;52.630;4.896;2023-05-08T09:45:38;103184.59;;;18.73;75.33
46942;BME280;32676;52.630;4.896;2023-05-08T09:48:06;103225.25;;;18.82;75.35
46942;BME280;32676;52.630;4.896;2023-05-08T09:50:34;103253.47;;;18.89;74.60
46942;BME280;32676;52.630;4.896;2023-05-08T09:53:00;103279.94;;;18.95;74.10
46942;BME280;32676;52.630;4.896;2023-05-08T09:55:26;103278.19;;;18.94;74.42
46942;BME280;32676;52.630;4.896;2023-05-08T09:57:53;103274.59;;;18.95;74.36
46942;BME280;32676;52.630;4.896;2023-05-08T10:00:21;103301.09;;;19.01;74.14
46942;BME280;32676;52.630;4.896;2023-05-08T10:02:53;103326.69;;;19.07;73.92
46942;BME280;32676;52.630;4.896;2023-05-08T10:05:24;103334.53;;;19.11;74.11
46942;BME280;32676;52.630;4.896;2023-05-08T10:07:51;103328.38;;;19.09;74.07
46942;BME280;32676;52.630;4.896;2023-05-08T10:10:21;103313.41;;;19.05;74.64
46942;BME280;32676;52.630;4.896;2023-05-08T10:12:47;103308.06;;;19.05;74.20
46942;BME280;32676;52.630;4.896;2023-05-08T10:15:14;103315.13;;;19.06;74.38
46942;BME280;32676;52.630;4.896;2023-05-08T10:17:43;103313.38;;;19.07;73.90
46942;BME280;32676;52.630;4.896;2023-05-08T10:20:09;103298.31;;;19.04;74.16
46942;BME280;32676;52.630;4.896;2023-05-08T10:22:38;103293.03;;;19.03;74.63
46942;BME280;32676;52.630;4.896;2023-05-08T10:25:09;103301.81;;;19.06;74.90
46942;BME280;32676;52.630;4.896;2023-05-08T10:27:38;103325.63;;;19.12;74.38
46942;BME280;32676;52.630;4.896;2023-05-08T10:30:06;103359.19;;;19.20;74.46
46942;BME280;32676;52.630;4.896;2023-05-08T10:32:36;103359.19;;;19.20;74.13
46942;BME280;32676;52.630;4.896;2023-05-08T10:35:04;103368.03;;;19.22;73.70
46942;BME280;32676;52.630;4.896;2023-05-08T10:37:33;103354.72;;;19.20;74.18
46942;BME280;32676;52.630;4.896;2023-05-08T10:40:01;103346.78;;;19.18;74.45
46942;BME280;32676;52.630;4.896;2023-05-08T10:42:28;103339.72;;;19.17;74.41
46942;BME280;32676;52.630;4.896;2023-05-08T10:44:54;103355.59;;;19.21;74.26
46942;BME280;32676;52.630;4.896;2023-05-08T10:47:21;103366.19;;;19.24;74.06
46942;BME280;32676;52.630;4.896;2023-05-08T10:49:50;103398.88;;;19.30;73.70
46942;BME280;32676;52.630;4.896;2023-05-08T10:52:22;103417.41;;;19.35;73.36
46942;BME280;32676;52.630;4.896;2023-05-08T10:55:00;103428.00;;;19.38;72.98
46942;BME280;32676;52.630;4.896;2023-05-08T10:57:33;103443.91;;;19.41;73.05
46942;BME280;32676;52.630;4.896;2023-05-08T10:59:59;103457.09;;;19.46;72.97
46942;BME280;32676;52.630;4.896;2023-05-08T11:02:25;103468.56;;;19.49;72.88
46942;BME280;32676;52.630;4.896;2023-05-08T11:04:53;103499.53;;;19.55;73.22
46942;BME280;32676;52.630;4.896;2023-05-08T11:07:22;103548.06;;;19.68;73.57
46942;BME280;32676;52.630;4.896;2023-05-08T11:09:54;103622.44;;;19.83;73.13
46942;BME280;32676;52.630;4.896;2023-05-08T11:12:32;103694.91;;;20.01;72.39
46942;BME280;32676;52.630;4.896;2023-05-08T11:15:01;103771.00;;;20.17;72.26
46942;BME280;32676;52.630;4.896;2023-05-08T11:17:29;103757.75;;;20.14;70.24
46942;BME280;32676;52.630;4.896;2023-05-08T11:19:56;103802.81;;;20.26;69.84
46942;BME280;32676;52.630;4.896;2023-05-08T11:22:23;103811.69;;;20.28;69.79
46942;BME280;32676;52.630;4.896;2023-05-08T11:24:52;103794.78;;;20.26;69.67
46942;BME280;32676;52.630;4.896;2023-05-08T11:27:29;103818.69;;;20.32;70.04
46942;BME280;32676;52.630;4.896;2023-05-08T11:38:24;103918.69;;;20.57;68.75
46942;BME280;32676;52.630;4.896;2023-05-08T11:40:55;103944.41;;;20.62;68.98
46942;BME280;32676;52.630;4.896;2023-05-08T11:43:25;103915.97;;;20.58;68.61
46942;BME280;32676;52.630;4.896;2023-05-08T11:45:58;103999.31;;;20.76;69.91
46942;BME280;32676;52.630;4.896;2023-05-08T11:48:25;104056.03;;;20.88;69.99
46942;BME280;32676;52.630;4.896;2023-05-08T11:50:51;104097.63;;;21.00;69.25
46942;BME280;32676;52.630;4.896;2023-05-08T11:53:18;104103.81;;;21.02;68.66
46942;BME280;32676;52.630;4.896;2023-05-08T11:55:47;104075.41;;;20.97;68.38
46942;BME280;32676;52.630;4.896;2023-05-08T11:58:14;104092.25;;;21.02;68.11
46942;BME280;32676;52.630;4.896;2023-05-08T12:00:41;104117.94;;;21.07;68.10
46942;BME280;32676;52.630;4.896;2023-05-08T12:03:13;104166.72;;;21.17;67.51
46942;BME280;32676;52.630;4.896;2023-05-08T12:05:40;104218.13;;;21.30;68.05
46942;BME280;32676;52.630;4.896;2023-05-08T12:08:06;104255.34;;;21.41;67.25
46942;BME280;32676;52.630;4.896;2023-05-08T12:10:38;104276.69;;;21.44;66.80
46942;BME280;32676;52.630;4.896;2023-05-08T12:13:15;104270.47;;;21.43;66.33
46942;BME280;32676;52.630;4.896;2023-05-08T12:15:42;104257.97;;;21.45;65.62
46942;BME280;32676;52.630;4.896;2023-05-08T12:18:08;104279.31;;;21.49;65.61
46942;BME280;32676;52.630;4.896;2023-05-08T12:20:34;104241.94;;;21.42;65.60
46942;BME280;32676;52.630;4.896;2023-05-08T12:23:01;104227.72;;;21.40;65.82
46942;BME280;32676;52.630;4.896;2023-05-08T12:25:27;104203.69;;;21.37;65.31
46942;BME280;32676;52.630;4.896;2023-05-08T12:27:54;104225.88;;;21.42;65.33
46942;BME280;32676;52.630;4.896;2023-05-08T12:30:22;104225.88;;;21.42;64.80
46942;BME280;32676;52.630;4.896;2023-05-08T12:32:49;104209.00;;;21.40;64.90
46942;BME280;32676;52.630;4.896;2023-05-08T12:35:16;104194.78;;;21.38;65.10
46942;BME280;32676;52.630;4.896;2023-05-08T12:37:43;104177.88;;;21.36;65.31
46942;BME280;32676;52.630;4.896;2023-05-08T12:40:21;104172.53;;;21.36;66.15
46942;BME280;32676;52.630;4.896;2023-05-08T12:42:49;104141.47;;;21.31;66.33
46942;BME280;32676;52.630;4.896;2023-05-08T12:45:16;104142.34;;;21.31;66.58
46942;BME280;32676;52.630;4.896;2023-05-08T12:47:48;104158.31;;;21.34;66.87
46942;BME280;32676;52.630;4.896;2023-05-08T12:50:15;104098.88;;;21.23;66.53
46942;BME280;32676;52.630;4.896;2023-05-08T12:52:42;104076.66;;;21.19;66.54
46942;BME280;32676;52.630;4.896;2023-05-08T12:57:59;104116.47;;;21.30;67.16
46942;BME280;32676;52.630;4.896;2023-05-08T13:00:32;104124.44;;;21.33;66.33
46942;BME280;32676;52.630;4.896;2023-05-08T13:03:00;104161.66;;;21.42;66.80
46942;BME280;32676;52.630;4.896;2023-05-08T13:05:26;104207.88;;;21.51;66.34